createdAt,value
2022-12-27T00:00:09.215Z,102055.13
2022-12-27T00:02:38.671Z,102067.47
2022-12-27T00:05:11.106Z,102069.88
2022-12-27T00:07:39.193Z,102067.88
2022-12-27T00:10:09.078Z,102077.66
2022-12-27T00:12:38.977Z,102072.38
2022-12-27T00:15:08.103Z,102064.38
2022-12-27T00:17:36.082Z,102065.31
2022-12-27T00:20:11.473Z,102068.91
2022-12-27T00:22:40.707Z,102067.72
2022-12-27T00:25:09.995Z,102054.78
2022-12-27T00:27:39.741Z,102081.09
2022-12-27T00:30:09.418Z,102055.31
2022-12-27T00:32:37.575Z,102073.84
2022-12-27T00:35:06.643Z,102083.59
2022-12-27T00:37:34.698Z,102071.06
2022-12-27T00:40:02.796Z,102059.47
2022-12-27T00:42:30.825Z,102061.41
2022-12-27T00:45:00.334Z,102072.06
2022-12-27T00:47:28.383Z,102050.13
2022-12-27T00:49:56.470Z,102066.78
2022-12-27T00:52:24.534Z,102047.41
2022-12-27T00:54:52.432Z,102052.78
2022-12-27T00:57:20.379Z,102058.72
2022-12-27T00:59:49.351Z,102045.66
2022-12-27T01:02:18.773Z,102052.69
2022-12-27T01:04:46.752Z,102066.91
2022-12-27T01:07:14.717Z,102060.22
2022-12-27T01:09:42.703Z,102080.31
2022-12-27T01:12:10.671Z,102082.47
2022-12-27T01:14:38.702Z,102092.09
2022-12-27T01:17:06.865Z,102098.97
2022-12-27T01:19:38.011Z,102081.53
2022-12-27T01:22:07.531Z,102097.19
2022-12-27T01:24:35.729Z,102098.84
2022-12-27T01:27:03.874Z,102100.44
2022-12-27T01:29:31.884Z,102109.25
2022-12-27T01:31:59.850Z,102121.75
2022-12-27T01:34:28.123Z,102123.50
2022-12-27T01:36:57.438Z,102118.22
2022-12-27T01:39:25.456Z,102134.19
2022-12-27T01:42:11.220Z,102125.31
2022-12-27T01:44:57.736Z,102135.88
2022-12-27T01:47:36.319Z,102142.06
2022-12-27T01:50:17.295Z,102118.41
2022-12-27T01:52:49.568Z,102138.56
2022-12-27T01:55:30.003Z,102137.75
2022-12-27T01:58:01.769Z,102150.13
2022-12-27T02:00:31.710Z,102155.56
2022-12-27T02:03:00.851Z,102151.06
2022-12-27T02:05:30.315Z,102146.06
2022-12-27T02:08:13.686Z,102167.13
2022-12-27T02:10:42.511Z,102145.22
2022-12-27T02:13:11.018Z,102174.41
2022-12-27T02:15:39.045Z,102170.63
2022-12-27T02:18:07.404Z,102147.56
2022-12-27T02:20:56.048Z,102167.56
2022-12-27T02:24:07.175Z,102167.66
2022-12-27T02:26:48.040Z,102151.91
2022-12-27T02:29:49.171Z,102172.97
2022-12-27T02:32:23.139Z,102173.88
2022-12-27T02:35:01.613Z,102174.16
2022-12-27T02:37:35.291Z,102172.44
2022-12-27T02:40:22.225Z,102178.88
2022-12-27T02:43:09.050Z,102191.28
2022-12-27T02:46:01.355Z,102185.06
2022-12-27T02:48:46.556Z,102173.66
2022-12-27T02:51:47.755Z,102191.41
2022-12-27T02:54:28.515Z,102196.09
2022-12-27T02:57:10.241Z,102170.50
2022-12-27T03:00:17.961Z,102181.84
2022-12-27T03:03:24.179Z,102200.41
2022-12-27T03:06:46.158Z,102177.41
2022-12-27T03:09:53.384Z,102177.22
2022-12-27T03:12:47.635Z,102167.53
2022-12-27T03:15:48.515Z,102185.00
2022-12-27T03:18:23.016Z,102168.00
2022-12-27T03:21:08.493Z,102191.97
2022-12-27T03:24:03.261Z,102193.69
2022-12-27T03:26:35.814Z,102194.75
2022-12-27T03:29:23.727Z,102207.78
2022-12-27T03:32:13.376Z,102215.78
2022-12-27T03:34:47.005Z,102199.94
2022-12-27T03:37:36.309Z,102216.72
2022-12-27T03:40:08.870Z,102216.53
2022-12-27T03:42:57.223Z,102218.63
2022-12-27T03:45:45.388Z,102210.75
2022-12-27T03:48:18.063Z,102220.69
2022-12-27T03:50:55.272Z,102235.44
2022-12-27T03:53:30.188Z,102234.53
2022-12-27T03:55:58.781Z,102216.19
2022-12-27T03:58:26.942Z,102231.84
2022-12-27T04:00:54.993Z,102216.00
2022-12-27T04:03:23.085Z,102223.03
2022-12-27T04:05:52.641Z,102208.00
2022-12-27T04:08:38.106Z,102226.56
2022-12-27T04:11:23.332Z,102216.72
2022-12-27T04:14:08.471Z,102214.97
2022-12-27T04:16:53.609Z,102232.00
2022-12-27T04:19:38.749Z,102225.81
2022-12-27T04:22:25.637Z,102211.91
2022-12-27T04:25:11.049Z,102245.53
2022-12-27T04:27:56.367Z,102234.06
2022-12-27T04:30:41.616Z,102229.59
2022-12-27T04:33:27.196Z,102232.28
2022-12-27T04:35:55.199Z,102230.31
2022-12-27T04:38:24.674Z,102222.31
2022-12-27T04:41:09.960Z,102223.28
2022-12-27T04:43:55.155Z,102224.22
2022-12-27T04:46:42.860Z,102232.19
2022-12-27T04:49:33.522Z,102233.06
2022-12-27T04:52:18.779Z,102235.91
2022-12-27T04:55:00.185Z,102221.78
2022-12-27T04:57:29.073Z,102228.91
2022-12-27T05:00:14.454Z,102241.47
2022-12-27T05:02:43.548Z,102245.19
2022-12-27T05:05:12.565Z,102246.09
2022-12-27T05:07:58.325Z,102253.97
2022-12-27T05:10:45.722Z,102262.06
2022-12-27T05:13:31.597Z,102252.22
2022-12-27T05:16:02.010Z,102252.16
2022-12-27T05:18:30.147Z,102245.28
2022-12-27T05:21:03.541Z,102235.53
2022-12-27T05:23:48.989Z,102253.13
2022-12-27T05:26:22.939Z,102260.22
2022-12-27T05:28:52.599Z,102234.06
2022-12-27T05:31:22.111Z,102263.88
2022-12-27T05:33:50.887Z,102254.19
2022-12-27T05:36:19.926Z,102273.81
2022-12-27T05:38:48.077Z,102259.75
2022-12-27T05:41:16.565Z,102259.91
2022-12-27T05:43:45.995Z,102266.03
2022-12-27T05:46:16.609Z,102276.63
2022-12-27T05:48:44.610Z,102260.91
2022-12-27T05:51:14.910Z,102258.06
2022-12-27T05:53:43.128Z,102275.03
2022-12-27T05:56:15.305Z,102280.50
2022-12-27T05:58:43.569Z,102284.84
2022-12-27T06:01:14.797Z,102280.50
2022-12-27T06:03:43.199Z,102275.88
2022-12-27T06:06:11.769Z,102278.16
2022-12-27T06:08:40.784Z,102287.66
2022-12-27T06:11:11.424Z,102278.22
2022-12-27T06:13:52.068Z,102291.41
2022-12-27T06:16:23.214Z,102286.16
2022-12-27T06:18:51.750Z,102292.34
2022-12-27T06:21:21.950Z,102305.78
2022-12-27T06:23:51.642Z,102307.63
2022-12-27T06:26:21.924Z,102306.78
2022-12-27T06:28:50.334Z,102312.25
2022-12-27T06:31:19.094Z,102313.03
2022-12-27T06:33:49.717Z,102320.34
2022-12-27T06:36:19.431Z,102313.28
2022-12-27T06:38:48.932Z,102315.03
2022-12-27T06:41:19.588Z,102322.25
2022-12-27T06:43:48.478Z,102331.94
2022-12-27T06:46:18.974Z,102321.50
2022-12-27T06:48:48.803Z,102336.44
2022-12-27T06:51:18.618Z,102335.63
2022-12-27T06:53:46.743Z,102311.03
2022-12-27T06:56:17.123Z,102319.75
2022-12-27T06:58:45.535Z,102319.06
2022-12-27T07:01:15.460Z,102327.00
2022-12-27T07:03:43.807Z,102334.00
2022-12-27T07:06:13.227Z,102325.13
2022-12-27T07:08:41.581Z,102325.94
2022-12-27T07:11:12.307Z,102328.75
2022-12-27T07:13:42.822Z,102319.16
2022-12-27T07:16:13.606Z,102336.06
2022-12-27T07:18:42.142Z,102338.63
2022-12-27T07:21:14.688Z,102339.63
2022-12-27T07:23:43.335Z,102328.16
2022-12-27T07:26:13.675Z,102342.25
2022-12-27T07:28:43.752Z,102338.66
2022-12-27T07:31:13.963Z,102313.13
2022-12-27T07:33:42.356Z,102349.25
2022-12-27T07:36:16.549Z,102337.06
2022-12-27T07:38:47.083Z,102349.41
2022-12-27T07:41:15.711Z,102342.56
2022-12-27T07:43:44.458Z,102360.38
2022-12-27T07:46:14.791Z,102354.28
2022-12-27T07:48:43.623Z,102348.19
2022-12-27T07:51:12.691Z,102339.66
2022-12-27T07:53:42.501Z,102333.34
2022-12-27T07:56:13.009Z,102349.31
2022-12-27T07:58:42.211Z,102351.22
2022-12-27T08:01:11.697Z,102333.53
2022-12-27T08:03:41.886Z,102355.53
2022-12-27T08:06:19.945Z,102359.88
2022-12-27T08:08:50.510Z,102366.94
2022-12-27T08:11:21.157Z,102359.91
2022-12-27T08:13:49.480Z,102374.25
2022-12-27T08:16:21.557Z,102383.91
2022-12-27T08:18:49.996Z,102352.22
2022-12-27T08:21:18.433Z,102368.97
2022-12-27T08:23:46.596Z,102370.63
2022-12-27T08:26:16.910Z,102363.66
2022-12-27T08:28:44.877Z,102375.09
2022-12-27T08:31:15.066Z,102356.84
2022-12-27T08:33:43.154Z,102344.34
2022-12-27T08:36:45.139Z,102370.66
2022-12-27T08:39:01.595Z,102369.03
2022-12-27T08:41:31.067Z,102373.41
2022-12-27T08:43:59.054Z,102369.97
2022-12-27T08:46:27.272Z,102380.63
2022-12-27T08:48:55.353Z,102374.31
2022-12-27T08:51:32.665Z,102359.38
2022-12-27T08:54:04.092Z,102372.38
2022-12-27T08:56:33.463Z,102366.19
2022-12-27T08:59:01.578Z,102367.88
2022-12-27T09:01:30.148Z,102376.63
2022-12-27T09:04:00.881Z,102374.25
2022-12-27T09:06:28.886Z,102381.91
2022-12-27T09:08:58.389Z,102392.56
2022-12-27T09:11:28.754Z,102363.44
2022-12-27T09:14:00.968Z,102385.31
2022-12-27T09:16:30.094Z,102379.94
2022-12-27T09:19:00.615Z,102382.69
2022-12-27T09:21:32.781Z,102392.25
2022-12-27T09:24:03.851Z,102398.63
2022-12-27T09:26:32.503Z,102410.97
2022-12-27T09:29:02.444Z,102395.69
2022-12-27T09:31:33.334Z,102400.06
2022-12-27T09:34:01.620Z,102399.06
2022-12-27T09:36:31.133Z,102408.63
2022-12-27T09:39:02.305Z,102403.44
2022-12-27T09:44:40.926Z,102394.16
2022-12-27T09:47:14.026Z,102382.00
2022-12-27T09:49:46.587Z,102395.88
2022-12-27T09:52:20.228Z,102392.22
2022-12-27T09:55:04.427Z,102402.72
2022-12-27T09:57:38.132Z,102409.81
2022-12-27T10:00:14.801Z,102394.84
2022-12-27T10:02:44.619Z,102396.34
2022-12-27T10:05:21.907Z,102403.25
2022-12-27T10:08:10.174Z,102401.19
2022-12-27T10:10:44.639Z,102409.09
2022-12-27T10:13:30.470Z,102412.53
2022-12-27T10:16:11.685Z,102400.75
2022-12-27T10:18:50.578Z,102414.00
2022-12-27T10:21:23.457Z,102407.56
2022-12-27T10:23:56.923Z,102412.69
2022-12-27T10:26:25.111Z,102415.94
2022-12-27T10:28:57.736Z,102412.81
2022-12-27T10:31:28.231Z,102412.75
2022-12-27T10:33:58.129Z,102402.88
2022-12-27T10:36:28.224Z,102399.28
2022-12-27T10:38:56.311Z,102391.16
2022-12-27T10:41:33.618Z,102404.28
2022-12-27T10:44:01.656Z,102409.75
2022-12-27T10:46:33.986Z,102405.13
2022-12-27T10:49:21.606Z,102391.75
2022-12-27T10:51:52.429Z,102409.03
2022-12-27T10:54:24.837Z,102399.25
2022-12-27T10:56:54.473Z,102407.03
2022-12-27T10:59:24.066Z,102395.25
2022-12-27T11:02:18.326Z,102386.16
2022-12-27T11:04:59.282Z,102399.47
2022-12-27T11:07:32.216Z,102397.00
2022-12-27T11:10:14.748Z,102401.31
2022-12-27T11:12:56.151Z,102394.31
2022-12-27T11:15:24.432Z,102392.47
2022-12-27T11:17:57.510Z,102416.38
2022-12-27T11:20:30.252Z,102405.25
2022-12-27T11:23:02.784Z,102407.81
2022-12-27T11:25:32.072Z,102388.50
2022-12-27T11:28:04.385Z,102404.03
2022-12-27T11:30:35.617Z,102405.63
2022-12-27T11:33:19.620Z,102390.41
2022-12-27T11:35:54.061Z,102378.69
2022-12-27T11:38:26.320Z,102375.84
2022-12-27T11:41:04.288Z,102371.56
2022-12-27T11:43:36.914Z,102375.63
2022-12-27T11:46:07.291Z,102370.16
2022-12-27T11:48:39.761Z,102375.44
2022-12-27T11:51:31.230Z,102380.31
2022-12-27T11:54:22.326Z,102378.41
2022-12-27T11:56:54.209Z,102363.97
2022-12-27T11:59:33.024Z,102357.50
2022-12-27T12:02:28.534Z,102351.81
2022-12-27T12:05:37.683Z,102353.41
2022-12-27T12:08:34.105Z,102350.63
2022-12-27T12:11:15.303Z,102344.00
2022-12-27T12:14:18.141Z,102334.31
2022-12-27T12:17:16.734Z,102348.22
2022-12-27T12:20:01.924Z,102328.22
2022-12-27T12:22:39.048Z,102337.69
2022-12-27T12:25:37.076Z,102309.63
2022-12-27T12:28:57.104Z,102323.31
2022-12-27T12:31:37.921Z,102311.00
2022-12-27T12:34:37.367Z,102313.94
2022-12-27T12:37:16.974Z,102309.09
2022-12-27T12:40:01.677Z,102301.78
2022-12-27T12:42:38.594Z,102291.53
2022-12-27T12:45:45.074Z,102285.13
2022-12-27T12:48:26.985Z,102280.72
2022-12-27T12:51:22.936Z,102275.66
2022-12-27T12:54:03.498Z,102275.50
2022-12-27T12:57:00.143Z,102274.38
2022-12-27T12:59:42.880Z,102269.22
2022-12-27T13:02:30.036Z,102259.53
2022-12-27T13:05:16.727Z,102256.69
2022-12-27T13:08:00.102Z,102253.00
2022-12-27T13:10:51.556Z,102222.16
2022-12-27T13:13:27.356Z,102231.75
2022-12-27T13:16:13.006Z,102227.16
2022-12-27T13:18:52.111Z,102232.53
2022-12-27T13:21:30.304Z,102229.03
2022-12-27T13:24:08.411Z,102223.59
2022-12-27T13:26:47.295Z,102226.34
2022-12-27T13:29:33.358Z,102222.88
2022-12-27T13:32:08.499Z,102212.22
2022-12-27T13:34:45.265Z,102221.94
2022-12-27T13:37:24.195Z,102212.13
2022-12-27T13:40:30.310Z,102214.69
2022-12-27T13:43:28.278Z,102217.38
2022-12-27T13:46:13.864Z,102209.44
2022-12-27T13:48:56.122Z,102193.59
2022-12-27T13:51:43.959Z,102198.66
2022-12-27T13:55:03.808Z,102186.13
2022-12-27T13:58:04.383Z,102181.94
2022-12-27T14:00:39.446Z,102187.09
2022-12-27T14:03:47.336Z,102173.75
2022-12-27T14:06:29.871Z,102170.28
2022-12-27T14:09:24.059Z,102164.06
2022-12-27T14:12:04.789Z,102167.47
2022-12-27T14:14:35.920Z,102161.38
2022-12-27T14:17:20.768Z,102152.72
2022-12-27T14:20:09.776Z,102164.06
2022-12-27T14:23:01.807Z,102154.94
2022-12-27T14:26:07.145Z,102156.44
2022-12-27T14:29:13.561Z,102146.25
2022-12-27T14:32:07.418Z,102146.06
2022-12-27T14:35:10.528Z,102146.06
2022-12-27T14:38:29.517Z,102143.38
2022-12-27T14:41:38.291Z,102130.50
2022-12-27T14:44:42.837Z,102152.25
2022-12-27T14:47:32.935Z,102147.06
2022-12-27T14:50:39.588Z,102141.56
2022-12-27T14:53:52.991Z,102147.91
2022-12-27T14:56:32.677Z,102124.09
2022-12-27T14:59:20.391Z,102148.84
2022-12-27T15:02:01.987Z,102135.47
2022-12-27T15:04:58.593Z,102128.47
2022-12-27T15:07:48.090Z,102134.66
2022-12-27T15:10:22.333Z,102133.00
2022-12-27T15:13:00.877Z,102142.25
2022-12-27T15:15:45.019Z,102145.69
2022-12-27T15:18:24.776Z,102148.50
2022-12-27T15:21:09.640Z,102140.41
2022-12-27T15:23:48.906Z,102140.41
2022-12-27T15:26:27.605Z,102144.03
2022-12-27T15:29:21.312Z,102147.78
2022-12-27T15:32:02.171Z,102141.69
2022-12-27T15:34:42.680Z,102147.09
2022-12-27T15:37:43.767Z,102148.84
2022-12-27T15:40:39.876Z,102136.47
2022-12-27T15:43:23.554Z,102149.00
2022-12-27T15:46:09.362Z,102133.41
2022-12-27T15:49:02.076Z,102136.63
2022-12-27T15:51:36.573Z,102124.41
2022-12-27T15:54:15.098Z,102122.66
2022-12-27T15:57:02.207Z,102132.19
2022-12-27T15:59:49.220Z,102129.47
2022-12-27T16:02:32.114Z,102128.53
2022-12-27T16:05:06.429Z,102130.63
2022-12-27T16:07:38.601Z,102121.56
2022-12-27T16:10:30.037Z,102123.31
2022-12-27T16:13:02.834Z,102119.13
2022-12-27T16:15:41.108Z,102118.88
2022-12-27T16:18:50.034Z,102118.06
2022-12-27T16:21:22.386Z,102116.25
2022-12-27T16:23:55.843Z,102118.88
2022-12-27T16:26:27.501Z,102125.22
2022-12-27T16:29:00.917Z,102116.06
2022-12-27T16:31:31.137Z,102108.06
2022-12-27T16:34:00.943Z,102108.94
2022-12-27T16:36:32.359Z,102104.59
2022-12-27T16:39:29.255Z,102091.88
2022-12-27T16:42:03.673Z,102092.75
2022-12-27T16:44:59.091Z,102090.13
2022-12-27T16:47:50.680Z,102089.34
2022-12-27T16:50:40.970Z,102082.28
2022-12-27T16:53:19.329Z,102063.56
2022-12-27T16:56:18.921Z,102074.91
2022-12-27T16:58:47.078Z,102067.00
2022-12-27T17:02:01.632Z,102073.94
2022-12-27T17:04:53.232Z,102076.56
2022-12-27T17:08:10.925Z,102069.59
2022-12-27T17:11:00.313Z,102051.66
2022-12-27T17:13:46.295Z,102040.31
2022-12-27T17:16:23.917Z,102056.09
2022-12-27T17:18:56.220Z,102046.97
2022-12-27T17:21:30.716Z,102024.28
2022-12-27T17:24:02.678Z,102045.22
2022-12-27T17:26:59.427Z,102031.34
2022-12-27T17:29:56.477Z,102033.88
2022-12-27T17:32:41.155Z,102026.03
2022-12-27T17:35:15.035Z,102027.47
2022-12-27T17:37:52.631Z,102019.50
2022-12-27T17:40:34.493Z,102023.94
2022-12-27T17:43:36.087Z,102010.66
2022-12-27T17:46:21.201Z,102014.28
2022-12-27T17:48:49.363Z,102016.03
2022-12-27T17:51:22.607Z,101998.50
2022-12-27T17:54:09.363Z,102003.06
2022-12-27T17:57:03.288Z,102011.59
2022-12-27T17:59:34.172Z,102009.25
2022-12-27T18:02:07.325Z,102008.97
2022-12-27T18:04:37.396Z,102008.97
2022-12-27T18:07:08.846Z,101993.81
2022-12-27T18:09:40.903Z,101995.91
2022-12-27T18:12:16.420Z,101995.81
2022-12-27T18:14:45.412Z,101989.81
2022-12-27T18:17:29.395Z,101985.47
2022-12-27T18:19:57.412Z,101991.09
2022-12-27T18:22:28.063Z,101983.72
2022-12-27T18:24:56.271Z,101969.63
2022-12-27T18:27:26.084Z,101967.78
2022-12-27T18:29:54.825Z,101970.66
2022-12-27T18:32:29.945Z,101963.63
2022-12-27T18:35:03.927Z,101955.88
2022-12-27T18:37:36.415Z,101949.78
2022-12-27T18:40:30.641Z,101936.56
2022-12-27T18:42:58.838Z,101950.97
2022-12-27T18:45:30.310Z,101951.78
2022-12-27T18:48:00.417Z,101939.50
2022-12-27T18:50:30.793Z,101939.41
2022-12-27T18:53:04.133Z,101940.28
2022-12-27T18:55:32.326Z,101928.94
2022-12-27T18:58:05.687Z,101918.44
2022-12-27T19:00:33.870Z,101942.09
2022-12-27T19:03:14.900Z,101939.34
2022-12-27T19:05:59.928Z,101928.81
2022-12-27T19:08:34.408Z,101926.44
2022-12-27T19:11:03.641Z,101915.66
2022-12-27T19:13:39.646Z,101913.06
2022-12-27T19:16:08.304Z,101910.88
2022-12-27T19:18:38.556Z,101889.06
2022-12-27T19:21:08.182Z,101915.31
2022-12-27T19:23:39.481Z,101894.44
2022-12-27T19:26:22.507Z,101900.91
2022-12-27T19:29:03.515Z,101892.97
2022-12-27T19:31:31.801Z,101889.31
2022-12-27T19:34:03.463Z,101862.97
2022-12-27T19:36:33.945Z,101874.63
2022-12-27T19:39:03.457Z,101871.94
2022-12-27T19:41:31.856Z,101867.66
2022-12-27T19:43:59.928Z,101869.22
2022-12-27T19:46:31.162Z,101857.84
2022-12-27T19:51:47.906Z,101857.75
2022-12-27T19:54:19.744Z,101851.41
2022-12-27T19:56:48.377Z,101849.41
2022-12-27T19:59:18.372Z,101848.38
2022-12-27T20:01:47.397Z,101838.44
2022-12-27T20:04:19.829Z,101834.72
2022-12-27T20:06:49.879Z,101827.66
2022-12-27T20:09:20.639Z,101816.88
2022-12-27T20:11:50.347Z,101813.41
2022-12-27T20:14:18.645Z,101809.59
2022-12-27T20:16:48.464Z,101796.19
2022-12-27T20:19:18.382Z,101796.88
2022-12-27T20:21:46.527Z,101801.31
2022-12-27T20:24:15.374Z,101784.44
2022-12-27T20:26:45.274Z,101777.94
2022-12-27T20:29:15.309Z,101774.28
2022-12-27T20:31:46.273Z,101763.34
2022-12-27T20:34:24.824Z,101757.69
2022-12-27T20:36:55.305Z,101784.78
2022-12-27T20:39:23.530Z,101763.50
2022-12-27T20:41:52.940Z,101772.25
2022-12-27T20:44:20.984Z,101767.75
2022-12-27T20:46:50.080Z,101780.88
2022-12-27T20:49:18.116Z,101769.25
2022-12-27T20:51:46.314Z,101773.66
2022-12-27T20:54:16.665Z,101772.53
2022-12-27T20:56:44.698Z,101754.63
2022-12-27T20:59:14.431Z,101746.63
2022-12-27T21:01:42.514Z,101734.19
2022-12-27T21:04:11.038Z,101735.16
2022-12-27T21:06:39.325Z,101747.13
2022-12-27T21:09:08.571Z,101730.09
2022-12-27T21:11:37.151Z,101734.44
2022-12-27T21:14:06.130Z,101738.06
2022-12-27T21:16:36.632Z,101727.09
2022-12-27T21:19:07.398Z,101724.97
2022-12-27T21:21:37.863Z,101726.69
2022-12-27T21:24:08.293Z,101738.66
2022-12-27T21:26:38.253Z,101725.28
2022-12-27T21:29:08.024Z,101709.38
2022-12-27T21:31:38.326Z,101721.38
2022-12-27T21:34:07.204Z,101704.56
2022-12-27T21:36:36.123Z,101705.53
2022-12-27T21:39:05.682Z,101704.19
2022-12-27T21:41:35.611Z,101697.00
2022-12-27T21:44:04.792Z,101679.94
2022-12-27T21:46:35.327Z,101682.25
2022-12-27T21:49:06.501Z,101677.06
2022-12-27T21:51:37.856Z,101666.75
2022-12-27T21:54:09.637Z,101650.38
2022-12-27T21:56:39.383Z,101664.84
2022-12-27T21:59:11.189Z,101655.00
2022-12-27T22:01:51.038Z,101633.31
2022-12-27T22:04:22.602Z,101645.16
2022-12-27T22:06:51.316Z,101648.66
2022-12-27T22:09:19.744Z,101623.03
2022-12-27T22:11:48.516Z,101655.69
2022-12-27T22:14:16.832Z,101640.66
2022-12-27T22:16:44.802Z,101648.56
2022-12-27T22:19:14.261Z,101654.84
2022-12-27T22:21:44.028Z,101654.72
2022-12-27T22:24:19.593Z,101648.47
2022-12-27T22:26:50.221Z,101639.88
2022-12-27T22:29:18.689Z,101636.41
2022-12-27T22:31:49.247Z,101634.50
2022-12-27T22:34:17.299Z,101604.72
2022-12-27T22:36:46.818Z,101599.03
2022-12-27T22:39:14.835Z,101602.03
2022-12-27T22:41:42.881Z,101610.50
2022-12-27T22:44:12.744Z,101586.97
2022-12-27T22:49:29.825Z,101571.09
2022-12-27T22:51:59.265Z,101545.47
2022-12-27T22:55:03.065Z,101551.25
2022-12-27T22:57:15.352Z,101553.09
2022-12-27T22:59:43.534Z,101551.94
2022-12-27T23:02:11.643Z,101545.97
2022-12-27T23:04:40.078Z,101539.34
2022-12-27T23:07:09.690Z,101533.06
2022-12-27T23:09:42.795Z,101548.09
2022-12-27T23:12:11.329Z,101550.69
2022-12-27T23:14:42.266Z,101539.91
2022-12-27T23:17:10.613Z,101530.06
2022-12-27T23:19:40.998Z,101513.44
2022-12-27T23:22:10.543Z,101529.28
2022-12-27T23:24:38.723Z,101534.63
2022-12-27T23:27:06.958Z,101513.72
2022-12-27T23:29:35.111Z,101509.00
2022-12-27T23:32:03.345Z,101505.03
2022-12-27T23:34:31.432Z,101480.47
2022-12-27T23:37:01.227Z,101493.50
2022-12-27T23:39:30.911Z,101480.75
2022-12-27T23:41:59.086Z,101458.63
2022-12-27T23:44:33.746Z,101456.88
2022-12-27T23:47:03.809Z,101456.72
2022-12-27T23:49:32.003Z,101449.47
2022-12-27T23:52:00.220Z,101413.06
2022-12-27T23:54:28.406Z,101409.13
2022-12-27T23:56:58.000Z,101390.09
2022-12-27T23:59:26.251Z,101418.84
